Providence, Pennsylvania
Current Conditions -  °F | °C
As of 9:53 AM on Monday 24 Nov 2014 (Local Time) from KLNS Reporting Station
Clear Clear  
Wind Chill: 66°   Ceiling: Unl
Heat Index: 66°   Visibility: 10mi
Dew Point: 58°   Wind: 18mph
Humidity: 75%   Direction: 200°SSW
Pressure: 29.63"   Gusts: 28mph
Location:  39.9111°N, 76.2285°W
Report Text: KLNS 241453Z 20016G24KT 10SM CLR 19/14 A2963 RMK AO2 SLP034 T01890144 53002
Loading
Personal Weather Stations






























Interactive Weather Map New forecast layout! Learn more

10-Day Weather Forecast

Advertisements
Track Severe Weather on mobile